sensor_id;sensor_type;location;lat;lon;timestamp;pressure;altitude;pressure_sealevel;temperature;humidity
46724;BME280;32463;48.298;11.620;2024-02-16T00:01:23;96270.75;;;4.68;100.00
46724;BME280;32463;48.298;11.620;2024-02-16T00:03:50;96261.22;;;4.59;100.00
46724;BME280;32463;48.298;11.620;2024-02-16T00:06:16;96266.75;;;4.55;100.00
46724;BME280;32463;48.298;11.620;2024-02-16T00:08:43;96262.34;;;4.46;100.00
46724;BME280;32463;48.298;11.620;2024-02-16T00:11:09;96265.75;;;4.35;100.00
46724;BME280;32463;48.298;11.620;2024-02-16T00:13:36;96260.84;;;4.32;100.00
46724;BME280;32463;48.298;11.620;2024-02-16T00:16:03;96261.84;;;4.20;100.00
46724;BME280;32463;48.298;11.620;2024-02-16T00:18:29;96260.22;;;4.19;100.00
46724;BME280;32463;48.298;11.620;2024-02-16T00:20:56;96255.06;;;4.19;100.00
46724;BME280;32463;48.298;11.620;2024-02-16T00:23:22;96260.56;;;4.14;100.00
46724;BME280;32463;48.298;11.620;2024-02-16T00:25:50;96261.16;;;4.18;100.00
46724;BME280;32463;48.298;11.620;2024-02-16T00:28:17;96258.81;;;4.15;100.00
46724;BME280;32463;48.298;11.620;2024-02-16T00:30:43;96252.06;;;4.14;100.00
46724;BME280;32463;48.298;11.620;2024-02-16T00:33:12;96255.91;;;4.19;100.00
46724;BME280;32463;48.298;11.620;2024-02-16T00:35:38;96245.97;;;4.26;100.00
46724;BME280;32463;48.298;11.620;2024-02-16T00:38:05;96246.44;;;4.20;100.00
46724;BME280;32463;48.298;11.620;2024-02-16T00:40:31;96246.66;;;4.28;100.00
46724;BME280;32463;48.298;11.620;2024-02-16T00:42:58;96237.81;;;4.21;100.00
46724;BME280;32463;48.298;11.620;2024-02-16T00:45:25;96237.75;;;4.32;100.00
46724;BME280;32463;48.298;11.620;2024-02-16T00:47:52;96238.00;;;4.29;100.00
46724;BME280;32463;48.298;11.620;2024-02-16T00:50:19;96241.53;;;4.28;100.00
46724;BME280;32463;48.298;11.620;2024-02-16T00:52:45;96243.81;;;4.31;100.00
46724;BME280;32463;48.298;11.620;2024-02-16T00:55:12;96239.75;;;4.28;100.00
46724;BME280;32463;48.298;11.620;2024-02-16T00:57:39;96248.72;;;4.34;100.00
46724;BME280;32463;48.298;11.620;2024-02-16T01:00:06;96237.47;;;4.25;100.00
46724;BME280;32463;48.298;11.620;2024-02-16T01:02:34;96229.19;;;4.22;100.00
46724;BME280;32463;48.298;11.620;2024-02-16T01:05:00;96231.94;;;4.30;100.00
46724;BME280;32463;48.298;11.620;2024-02-16T01:07:28;96227.13;;;4.36;100.00
46724;BME280;32463;48.298;11.620;2024-02-16T01:09:56;96229.13;;;4.33;100.00
46724;BME280;32463;48.298;11.620;2024-02-16T01:12:22;96225.69;;;4.23;100.00
46724;BME280;32463;48.298;11.620;2024-02-16T01:14:49;96228.59;;;4.18;100.00
46724;BME280;32463;48.298;11.620;2024-02-16T01:17:15;96229.91;;;4.13;100.00
46724;BME280;32463;48.298;11.620;2024-02-16T01:19:42;96225.59;;;4.13;100.00
46724;BME280;32463;48.298;11.620;2024-02-16T01:22:08;96222.09;;;4.14;100.00
46724;BME280;32463;48.298;11.620;2024-02-16T01:24:35;96220.78;;;4.20;100.00
46724;BME280;32463;48.298;11.620;2024-02-16T01:27:02;96228.25;;;4.23;100.00
46724;BME280;32463;48.298;11.620;2024-02-16T01:29:28;96224.63;;;4.25;100.00
46724;BME280;32463;48.298;11.620;2024-02-16T01:31:55;96228.69;;;4.28;100.00
46724;BME280;32463;48.298;11.620;2024-02-16T01:34:21;96231.69;;;4.33;100.00
46724;BME280;32463;48.298;11.620;2024-02-16T01:36:48;96231.69;;;4.33;100.00
46724;BME280;32463;48.298;11.620;2024-02-16T01:39:14;96234.22;;;4.44;100.00
46724;BME280;32463;48.298;11.620;2024-02-16T01:41:41;96241.91;;;4.44;100.00
46724;BME280;32463;48.298;11.620;2024-02-16T01:44:07;96237.97;;;4.40;100.00
46724;BME280;32463;48.298;11.620;2024-02-16T01:46:34;96238.69;;;4.31;100.00
46724;BME280;32463;48.298;11.620;2024-02-16T01:49:01;96231.94;;;4.30;100.00
46724;BME280;32463;48.298;11.620;2024-02-16T01:51:28;96231.69;;;4.33;100.00
46724;BME280;32463;48.298;11.620;2024-02-16T01:53:55;96230.63;;;4.35;100.00
46724;BME280;32463;48.298;11.620;2024-02-16T01:56:20;96232.59;;;4.43;100.00
46724;BME280;32463;48.298;11.620;2024-02-16T01:58:48;96226.88;;;4.39;100.00
46724;BME280;32463;48.298;11.620;2024-02-16T02:01:14;96228.84;;;4.47;100.00
46724;BME280;32463;48.298;11.620;2024-02-16T02:03:40;96220.66;;;4.53;100.00
46724;BME280;32463;48.298;11.620;2024-02-16T02:06:07;96219.47;;;4.57;100.00
46724;BME280;32463;48.298;11.620;2024-02-16T02:08:33;96216.91;;;4.57;100.00
46724;BME280;32463;48.298;11.620;2024-02-16T02:11:00;96214.34;;;4.57;100.00
46724;BME280;32463;48.298;11.620;2024-02-16T02:13:27;96208.09;;;4.60;100.00
46724;BME280;32463;48.298;11.620;2024-02-16T02:15:54;96212.50;;;4.69;100.00
46724;BME280;32463;48.298;11.620;2024-02-16T02:18:22;96211.00;;;4.66;100.00
46724;BME280;32463;48.298;11.620;2024-02-16T02:20:48;96200.91;;;4.74;100.00
46724;BME280;32463;48.298;11.620;2024-02-16T02:23:15;96203.97;;;4.68;100.00
46724;BME280;32463;48.298;11.620;2024-02-16T02:25:41;96204.94;;;4.67;100.00
46724;BME280;32463;48.298;11.620;2024-02-16T02:28:08;96205.81;;;4.78;100.00
46724;BME280;32463;48.298;11.620;2024-02-16T02:30:34;96217.16;;;4.75;100.00
46724;BME280;32463;48.298;11.620;2024-02-16T02:33:03;96216.09;;;4.78;100.00
46724;BME280;32463;48.298;11.620;2024-02-16T02:35:30;96214.94;;;4.70;100.00
46724;BME280;32463;48.298;11.620;2024-02-16T02:37:57;96217.16;;;4.75;100.00
46724;BME280;32463;48.298;11.620;2024-02-16T02:40:23;96211.69;;;4.68;100.00
46724;BME280;32463;48.298;11.620;2024-02-16T02:42:50;96208.88;;;4.71;100.00
46724;BME280;32463;48.298;11.620;2024-02-16T02:45:17;96209.06;;;4.80;100.00
46724;BME280;32463;48.298;11.620;2024-02-16T02:47:43;96202.88;;;4.82;100.00
46724;BME280;32463;48.298;11.620;2024-02-16T02:50:11;96204.31;;;4.75;100.00
46724;BME280;32463;48.298;11.620;2024-02-16T02:52:38;96201.16;;;4.71;100.00
46724;BME280;32463;48.298;11.620;2024-02-16T02:55:05;96195.22;;;4.71;100.00
46724;BME280;32463;48.298;11.620;2024-02-16T02:57:31;96193.91;;;4.77;100.00
46724;BME280;32463;48.298;11.620;2024-02-16T03:00:05;96201.47;;;4.78;100.00
46724;BME280;32463;48.298;11.620;2024-02-16T03:02:38;96203.00;;;4.81;100.00
46724;BME280;32463;48.298;11.620;2024-02-16T03:05:06;96199.03;;;4.77;100.00
46724;BME280;32463;48.298;11.620;2024-02-16T03:07:34;96208.63;;;4.74;100.00
46724;BME280;32463;48.298;11.620;2024-02-16T03:10:01;96213.06;;;4.72;100.00
46724;BME280;32463;48.298;11.620;2024-02-16T03:12:28;96200.91;;;4.74;100.00
46724;BME280;32463;48.298;11.620;2024-02-16T03:14:55;96209.00;;;4.70;100.00
46724;BME280;32463;48.298;11.620;2024-02-16T03:17:22;96214.44;;;4.77;100.00
46724;BME280;32463;48.298;11.620;2024-02-16T03:19:48;96214.44;;;4.77;100.00
46724;BME280;32463;48.298;11.620;2024-02-16T03:22:15;96219.97;;;4.72;100.00
46724;BME280;32463;48.298;11.620;2024-02-16T03:24:41;96222.66;;;4.70;100.00
46724;BME280;32463;48.298;11.620;2024-02-16T03:27:09;96231.50;;;4.78;100.00
46724;BME280;32463;48.298;11.620;2024-02-16T03:29:36;96218.66;;;4.57;100.00
46724;BME280;32463;48.298;11.620;2024-02-16T03:32:03;96226.78;;;4.62;100.00
46724;BME280;32463;48.298;11.620;2024-02-16T03:34:29;96221.50;;;4.63;100.00
46724;BME280;32463;48.298;11.620;2024-02-16T03:36:56;96217.06;;;4.65;100.00
46724;BME280;32463;48.298;11.620;2024-02-16T03:39:24;96220.69;;;4.42;100.00
46724;BME280;32463;48.298;11.620;2024-02-16T03:41:50;96215.81;;;4.39;100.00
46724;BME280;32463;48.298;11.620;2024-02-16T03:44:16;96218.00;;;4.44;100.00
46724;BME280;32463;48.298;11.620;2024-02-16T03:46:43;96225.53;;;4.56;100.00
46724;BME280;32463;48.298;11.620;2024-02-16T03:49:09;96229.97;;;4.54;100.00
46724;BME280;32463;48.298;11.620;2024-02-16T03:51:36;96230.22;;;4.51;100.00
46724;BME280;32463;48.298;11.620;2024-02-16T03:54:03;96229.53;;;4.49;100.00
46724;BME280;32463;48.298;11.620;2024-02-16T03:56:30;96228.59;;;4.50;100.00
46724;BME280;32463;48.298;11.620;2024-02-16T03:58:57;96228.59;;;4.50;100.00
46724;BME280;32463;48.298;11.620;2024-02-16T04:01:24;96228.59;;;4.50;100.00
46724;BME280;32463;48.298;11.620;2024-02-16T04:03:51;96226.72;;;4.52;100.00
46724;BME280;32463;48.298;11.620;2024-02-16T04:06:19;96231.84;;;4.52;100.00
46724;BME280;32463;48.298;11.620;2024-02-16T04:08:45;96233.41;;;4.64;100.00
46724;BME280;32463;48.298;11.620;2024-02-16T04:11:13;96229.75;;;4.57;100.00
46724;BME280;32463;48.298;11.620;2024-02-16T04:13:40;96228.47;;;4.52;100.00
46724;BME280;32463;48.298;11.620;2024-02-16T04:16:07;96221.84;;;4.49;100.00
46724;BME280;32463;48.298;11.620;2024-02-16T04:18:33;96231.03;;;4.52;100.00
46724;BME280;32463;48.298;11.620;2024-02-16T04:21:06;96234.31;;;4.54;100.00
46724;BME280;32463;48.298;11.620;2024-02-16T04:23:32;96238.44;;;4.66;100.00
46724;BME280;32463;48.298;11.620;2024-02-16T04:25:58;96239.84;;;4.59;100.00
46724;BME280;32463;48.298;11.620;2024-02-16T04:28:25;96241.75;;;4.57;100.00
46724;BME280;32463;48.298;11.620;2024-02-16T04:30:51;96240.25;;;4.54;100.00
46724;BME280;32463;48.298;11.620;2024-02-16T04:33:18;96238.88;;;4.50;100.00
46724;BME280;32463;48.298;11.620;2024-02-16T04:35:44;96230.69;;;4.56;100.00
46724;BME280;32463;48.298;11.620;2024-02-16T04:38:13;96235.69;;;4.58;100.00
46724;BME280;32463;48.298;11.620;2024-02-16T04:40:39;96237.84;;;4.62;100.00
46724;BME280;32463;48.298;11.620;2024-02-16T04:43:06;96249.38;;;4.68;100.00
46724;BME280;32463;48.298;11.620;2024-02-16T04:45:32;96246.78;;;4.58;100.00
46724;BME280;32463;48.298;11.620;2024-02-16T04:48:04;96250.44;;;4.45;100.00
46724;BME280;32463;48.298;11.620;2024-02-16T04:50:33;96245.88;;;4.48;100.00
46724;BME280;32463;48.298;11.620;2024-02-16T04:53:01;96247.56;;;4.59;100.00
46724;BME280;32463;48.298;11.620;2024-02-16T04:55:28;96250.00;;;4.60;100.00
46724;BME280;32463;48.298;11.620;2024-02-16T04:57:55;96246.44;;;4.52;100.00
46724;BME280;32463;48.298;11.620;2024-02-16T05:00:22;96252.97;;;4.56;100.00
46724;BME280;32463;48.298;11.620;2024-02-16T05:02:50;96251.22;;;4.56;100.00
46724;BME280;32463;48.298;11.620;2024-02-16T05:05:16;96247.00;;;4.55;100.00
46724;BME280;32463;48.298;11.620;2024-02-16T05:07:43;96251.69;;;4.50;100.00
46724;BME280;32463;48.298;11.620;2024-02-16T05:10:13;96245.25;;;4.56;100.00
46724;BME280;32463;48.298;11.620;2024-02-16T05:12:39;96245.25;;;4.56;100.00
46724;BME280;32463;48.298;11.620;2024-02-16T05:15:06;96245.97;;;4.58;100.00
46724;BME280;32463;48.298;11.620;2024-02-16T05:17:34;96242.38;;;4.49;100.00
46724;BME280;32463;48.298;11.620;2024-02-16T05:20:01;96245.06;;;4.48;100.00
46724;BME280;32463;48.298;11.620;2024-02-16T05:22:27;96247.75;;;4.46;100.00
46724;BME280;32463;48.298;11.620;2024-02-16T05:24:54;96245.06;;;4.48;100.00
46724;BME280;32463;48.298;11.620;2024-02-16T05:27:21;96246.31;;;4.53;100.00
46724;BME280;32463;48.298;11.620;2024-02-16T05:29:47;96250.00;;;4.60;100.00
46724;BME280;32463;48.298;11.620;2024-02-16T05:32:15;96237.59;;;4.65;100.00
46724;BME280;32463;48.298;11.620;2024-02-16T05:34:42;96242.50;;;4.68;100.00
46724;BME280;32463;48.298;11.620;2024-02-16T05:37:09;96238.75;;;4.72;100.00
46724;BME280;32463;48.298;11.620;2024-02-16T05:39:36;96239.88;;;4.80;100.00
46724;BME280;32463;48.298;11.620;2024-02-16T05:42:19;96245.03;;;4.80;100.00
46724;BME280;32463;48.298;11.620;2024-02-16T05:44:45;96249.66;;;4.86;100.00
46724;BME280;32463;48.298;11.620;2024-02-16T05:47:12;96246.41;;;4.84;100.00
46724;BME280;32463;48.298;11.620;2024-02-16T05:49:38;96240.69;;;4.80;100.00
46724;BME280;32463;48.298;11.620;2024-02-16T05:52:05;96237.19;;;4.81;100.00
46724;BME280;32463;48.298;11.620;2024-02-16T05:54:48;96242.91;;;4.85;100.00
46724;BME280;32463;48.298;11.620;2024-02-16T05:57:16;96243.03;;;4.83;100.00
46724;BME280;32463;48.298;11.620;2024-02-16T05:59:43;96248.53;;;4.79;100.00
46724;BME280;32463;48.298;11.620;2024-02-16T06:02:10;96245.25;;;4.77;100.00
46724;BME280;32463;48.298;11.620;2024-02-16T06:04:41;96241.03;;;4.87;100.00
46724;BME280;32463;48.298;11.620;2024-02-16T06:07:07;96248.91;;;4.74;100.00
46724;BME280;32463;48.298;11.620;2024-02-16T06:09:34;96258.91;;;4.77;100.00
46724;BME280;32463;48.298;11.620;2024-02-16T06:12:05;96260.19;;;4.83;100.00
46724;BME280;32463;48.298;11.620;2024-02-16T06:14:33;96257.03;;;4.79;100.00
46724;BME280;32463;48.298;11.620;2024-02-16T06:16:59;96265.25;;;4.73;100.00
46724;BME280;32463;48.298;11.620;2024-02-16T06:19:26;96265.25;;;4.73;100.00
46724;BME280;32463;48.298;11.620;2024-02-16T06:21:53;96269.81;;;4.69;100.00
46724;BME280;32463;48.298;11.620;2024-02-16T06:24:22;96270.63;;;4.70;100.00
46724;BME280;32463;48.298;11.620;2024-02-16T06:26:49;96273.50;;;4.77;100.00
46724;BME280;32463;48.298;11.620;2024-02-16T06:29:16;96272.81;;;4.74;100.00
46724;BME280;32463;48.298;11.620;2024-02-16T06:31:45;96287.16;;;4.77;100.00
46724;BME280;32463;48.298;11.620;2024-02-16T06:34:15;96288.19;;;4.86;100.00
46724;BME280;32463;48.298;11.620;2024-02-16T06:36:42;96297.81;;;4.93;100.00
46724;BME280;32463;48.298;11.620;2024-02-16T06:39:09;96296.13;;;4.83;100.00
46724;BME280;32463;48.298;11.620;2024-02-16T06:41:34;96304.78;;;4.82;100.00
46724;BME280;32463;48.298;11.620;2024-02-16T06:44:02;96317.13;;;4.88;100.00
46724;BME280;32463;48.298;11.620;2024-02-16T06:46:28;96313.88;;;4.86;100.00
46724;BME280;32463;48.298;11.620;2024-02-16T06:48:55;96324.19;;;4.95;100.00
46724;BME280;32463;48.298;11.620;2024-02-16T06:51:23;96328.47;;;5.06;100.00
46724;BME280;32463;48.298;11.620;2024-02-16T06:53:51;96325.09;;;4.85;100.00
46724;BME280;32463;48.298;11.620;2024-02-16T06:56:18;96330.47;;;4.82;100.00
46724;BME280;32463;48.298;11.620;2024-02-16T06:58:45;96340.28;;;4.77;100.00
46724;BME280;32463;48.298;11.620;2024-02-16T07:01:13;96332.81;;;4.73;100.00
46724;BME280;32463;48.298;11.620;2024-02-16T07:03:40;96338.53;;;4.77;100.00
46724;BME280;32463;48.298;11.620;2024-02-16T07:06:07;96339.59;;;4.74;100.00
46724;BME280;32463;48.298;11.620;2024-02-16T07:08:38;96332.78;;;4.85;100.00
46724;BME280;32463;48.298;11.620;2024-02-16T07:11:05;96335.94;;;4.88;100.00
46724;BME280;32463;48.298;11.620;2024-02-16T07:13:32;96333.66;;;4.95;100.00
46724;BME280;32463;48.298;11.620;2024-02-16T07:16:00;96336.88;;;5.08;100.00
46724;BME280;32463;48.298;11.620;2024-02-16T07:18:26;96336.00;;;5.19;100.00
46724;BME280;32463;48.298;11.620;2024-02-16T07:20:53;96341.38;;;5.36;100.00
46724;BME280;32463;48.298;11.620;2024-02-16T07:23:19;96341.56;;;5.45;100.00
46724;BME280;32463;48.298;11.620;2024-02-16T07:25:46;96346.38;;;5.59;100.00
46724;BME280;32463;48.298;11.620;2024-02-16T07:28:14;96354.53;;;5.64;100.00
46724;BME280;32463;48.298;11.620;2024-02-16T07:30:41;96353.75;;;5.43;100.00
46724;BME280;32463;48.298;11.620;2024-02-16T07:33:08;96351.75;;;5.46;100.00
46724;BME280;32463;48.298;11.620;2024-02-16T07:35:34;96356.41;;;5.62;100.00
46724;BME280;32463;48.298;11.620;2024-02-16T07:38:05;96360.78;;;5.71;100.00
46724;BME280;32463;48.298;11.620;2024-02-16T07:40:32;96352.13;;;5.72;100.00
46724;BME280;32463;48.298;11.620;2024-02-16T07:42:59;96354.13;;;5.89;100.00
46724;BME280;32463;48.298;11.620;2024-02-16T07:45:25;96348.47;;;5.95;100.00
46724;BME280;32463;48.298;11.620;2024-02-16T07:47:52;96350.72;;;6.10;100.00
46724;BME280;32463;48.298;11.620;2024-02-16T07:50:19;96349.06;;;6.08;100.00
46724;BME280;32463;48.298;11.620;2024-02-16T07:52:47;96345.69;;;6.18;100.00
46724;BME280;32463;48.298;11.620;2024-02-16T07:55:13;96351.03;;;6.35;100.00
46724;BME280;32463;48.298;11.620;2024-02-16T07:57:42;96348.59;;;6.43;100.00
46724;BME280;32463;48.298;11.620;2024-02-16T08:00:12;96353.50;;;6.47;100.00
46724;BME280;32463;48.298;11.620;2024-02-16T08:02:41;96354.47;;;6.74;100.00
46724;BME280;32463;48.298;11.620;2024-02-16T08:05:12;96360.59;;;6.93;100.00
46724;BME280;32463;48.298;11.620;2024-02-16T08:07:40;96356.00;;;6.96;100.00
46724;BME280;32463;48.298;11.620;2024-02-16T08:10:08;96358.44;;;6.98;100.00
46724;BME280;32463;48.298;11.620;2024-02-16T08:12:35;96361.81;;;7.08;100.00
46724;BME280;32463;48.298;11.620;2024-02-16T08:15:04;96356.78;;;7.16;100.00
46724;BME280;32463;48.298;11.620;2024-02-16T08:17:36;96354.63;;;7.31;100.00
46724;BME280;32463;48.298;11.620;2024-02-16T08:20:03;96357.69;;;7.44;100.00
46724;BME280;32463;48.298;11.620;2024-02-16T08:22:29;96361.91;;;7.55;100.00
46724;BME280;32463;48.298;11.620;2024-02-16T08:24:57;96363.59;;;7.83;100.00
46724;BME280;32463;48.298;11.620;2024-02-16T08:27:24;96364.75;;;7.98;100.00
46724;BME280;32463;48.298;11.620;2024-02-16T08:29:51;96357.91;;;8.17;100.00
46724;BME280;32463;48.298;11.620;2024-02-16T08:32:17;96360.78;;;8.41;100.00
46724;BME280;32463;48.298;11.620;2024-02-16T08:34:46;96350.72;;;8.65;100.00
46724;BME280;32463;48.298;11.620;2024-02-16T08:37:13;96360.69;;;8.96;100.00
46724;BME280;32463;48.298;11.620;2024-02-16T08:39:40;96354.25;;;9.18;100.00
46724;BME280;32463;48.298;11.620;2024-02-16T08:42:07;96362.31;;;9.32;100.00
46724;BME280;32463;48.298;11.620;2024-02-16T08:44:34;96357.91;;;9.51;100.00
46724;BME280;32463;48.298;11.620;2024-02-16T08:47:02;96360.00;;;9.73;100.00
46724;BME280;32463;48.298;11.620;2024-02-16T08:49:28;96355.63;;;9.99;100.00
46724;BME280;32463;48.298;11.620;2024-02-16T08:51:56;96357.09;;;10.10;100.00
46724;BME280;32463;48.298;11.620;2024-02-16T08:54:23;96360.34;;;10.12;100.00
46724;BME280;32463;48.298;11.620;2024-02-16T08:56:51;96356.78;;;10.39;100.00
46724;BME280;32463;48.298;11.620;2024-02-16T08:59:17;96365.91;;;10.51;100.00
46724;BME280;32463;48.298;11.620;2024-02-16T09:01:44;96356.06;;;10.63;100.00
46724;BME280;32463;48.298;11.620;2024-02-16T09:04:10;96356.28;;;10.94;100.00
46724;BME280;32463;48.298;11.620;2024-02-16T09:06:37;96351.59;;;11.30;100.00
46724;BME280;32463;48.298;11.620;2024-02-16T09:09:04;96361.63;;;11.82;100.00
46724;BME280;32463;48.298;11.620;2024-02-16T09:11:32;96353.78;;;12.45;100.00
46724;BME280;32463;48.298;11.620;2024-02-16T09:13:58;96354.13;;;13.04;99.86
46724;BME280;32463;48.298;11.620;2024-02-16T09:16:25;96350.59;;;13.42;93.46
46724;BME280;32463;48.298;11.620;2024-02-16T09:18:52;96362.50;;;13.60;89.33
46724;BME280;32463;48.298;11.620;2024-02-16T09:21:19;96355.09;;;14.01;85.79
46724;BME280;32463;48.298;11.620;2024-02-16T09:23:46;96356.34;;;14.49;86.18
46724;BME280;32463;48.298;11.620;2024-02-16T09:26:12;96354.19;;;14.89;82.67
46724;BME280;32463;48.298;11.620;2024-02-16T09:28:40;96354.09;;;14.97;77.75
46724;BME280;32463;48.298;11.620;2024-02-16T09:31:07;96358.94;;;15.42;75.06
46724;BME280;32463;48.298;11.620;2024-02-16T09:33:34;96341.13;;;15.31;72.18
46724;BME280;32463;48.298;11.620;2024-02-16T09:36:00;96343.38;;;15.56;69.96
46724;BME280;32463;48.298;11.620;2024-02-16T09:38:27;96350.84;;;15.16;69.48
46724;BME280;32463;48.298;11.620;2024-02-16T09:40:54;96335.66;;;15.47;66.05
46724;BME280;32463;48.298;11.620;2024-02-16T09:43:28;96339.69;;;15.50;63.41
46724;BME280;32463;48.298;11.620;2024-02-16T09:45:58;96343.84;;;14.95;64.70
46724;BME280;32463;48.298;11.620;2024-02-16T09:48:27;96348.34;;;14.87;64.98
46724;BME280;32463;48.298;11.620;2024-02-16T09:50:54;96335.66;;;15.05;63.16
46724;BME280;32463;48.298;11.620;2024-02-16T09:53:25;96348.34;;;15.29;64.06
46724;BME280;32463;48.298;11.620;2024-02-16T09:55:51;96337.81;;;15.59;61.71
46724;BME280;32463;48.298;11.620;2024-02-16T09:58:19;96336.66;;;15.46;61.75
46724;BME280;32463;48.298;11.620;2024-02-16T10:03:26;96342.91;;;16.01;57.89
46724;BME280;32463;48.298;11.620;2024-02-16T10:06:06;96342.88;;;16.36;56.71
46724;BME280;32463;48.298;11.620;2024-02-16T10:08:33;96346.03;;;16.25;55.24
46724;BME280;32463;48.298;11.620;2024-02-16T10:11:01;96350.13;;;15.99;55.81
46724;BME280;32463;48.298;11.620;2024-02-16T10:13:29;96348.66;;;16.25;54.86
46724;BME280;32463;48.298;11.620;2024-02-16T10:16:09;96345.38;;;17.05;53.70
46724;BME280;32463;48.298;11.620;2024-02-16T10:18:40;96343.81;;;17.83;50.82
46724;BME280;32463;48.298;11.620;2024-02-16T10:21:07;96344.81;;;17.82;48.78
46724;BME280;32463;48.298;11.620;2024-02-16T10:23:34;96340.38;;;18.02;49.68
46724;BME280;32463;48.298;11.620;2024-02-16T10:26:01;96348.25;;;17.63;49.71
46724;BME280;32463;48.298;11.620;2024-02-16T10:28:28;96346.63;;;17.81;48.49
46724;BME280;32463;48.298;11.620;2024-02-16T10:30:59;96348.44;;;17.41;49.27
46724;BME280;32463;48.298;11.620;2024-02-16T10:33:31;96341.78;;;17.45;49.27
46724;BME280;32463;48.298;11.620;2024-02-16T10:35:59;96346.22;;;17.45;49.33
46724;BME280;32463;48.298;11.620;2024-02-16T10:38:28;96347.47;;;17.69;48.10
46724;BME280;32463;48.298;11.620;2024-02-16T10:40:56;96350.81;;;18.15;47.03
46724;BME280;32463;48.298;11.620;2024-02-16T10:43:25;96346.38;;;18.80;46.18
46724;BME280;32463;48.298;11.620;2024-02-16T10:45:52;96350.72;;;19.63;44.55
46724;BME280;32463;48.298;11.620;2024-02-16T10:48:20;96343.09;;;18.92;45.42
46724;BME280;32463;48.298;11.620;2024-02-16T10:50:46;96338.16;;;19.65;44.82
46724;BME280;32463;48.298;11.620;2024-02-16T10:53:28;96339.53;;;19.42;44.82
46724;BME280;32463;48.298;11.620;2024-02-16T10:56:00;96341.66;;;19.27;45.17
46724;BME280;32463;48.298;11.620;2024-02-16T10:58:27;96340.97;;;19.38;44.16
46724;BME280;32463;48.298;11.620;2024-02-16T11:00:56;96335.69;;;18.75;45.88
46724;BME280;32463;48.298;11.620;2024-02-16T11:03:26;96328.16;;;18.92;46.24
46724;BME280;32463;48.298;11.620;2024-02-16T11:05:54;96338.06;;;19.22;46.42
46724;BME280;32463;48.298;11.620;2024-02-16T11:08:26;96321.66;;;21.04;42.50
46724;BME280;32463;48.298;11.620;2024-02-16T11:11:01;96328.69;;;21.51;41.62
46724;BME280;32463;48.298;11.620;2024-02-16T11:13:32;96322.03;;;21.19;41.32
46724;BME280;32463;48.298;11.620;2024-02-16T11:16:09;96317.56;;;21.38;40.91
46724;BME280;32463;48.298;11.620;2024-02-16T11:18:39;96318.91;;;20.14;42.88
46724;BME280;32463;48.298;11.620;2024-02-16T11:21:06;96314.50;;;20.26;43.24
46724;BME280;32463;48.298;11.620;2024-02-16T11:23:35;96309.97;;;20.51;42.83
46724;BME280;32463;48.298;11.620;2024-02-16T11:26:03;96313.41;;;21.00;43.00
46724;BME280;32463;48.298;11.620;2024-02-16T11:28:33;96314.91;;;21.49;41.59
46724;BME280;32463;48.298;11.620;2024-02-16T11:31:01;96307.81;;;21.62;41.32
46724;BME280;32463;48.298;11.620;2024-02-16T11:33:28;96307.69;;;21.15;41.80
46724;BME280;32463;48.298;11.620;2024-02-16T11:35:59;96301.81;;;21.31;42.28
46724;BME280;32463;48.298;11.620;2024-02-16T11:38:26;96306.91;;;22.78;40.82
46724;BME280;32463;48.298;11.620;2024-02-16T11:41:02;96293.38;;;23.36;38.53
46724;BME280;32463;48.298;11.620;2024-02-16T11:43:29;96292.56;;;23.86;37.88
46724;BME280;32463;48.298;11.620;2024-02-16T11:45:56;96290.69;;;24.91;37.06
46724;BME280;32463;48.298;11.620;2024-02-16T11:48:25;96281.31;;;24.56;36.16
46724;BME280;32463;48.298;11.620;2024-02-16T11:51:10;96290.28;;;24.11;37.48
46724;BME280;32463;48.298;11.620;2024-02-16T11:53:37;96288.69;;;24.10;37.44
46724;BME280;32463;48.298;11.620;2024-02-16T11:56:04;96285.72;;;24.45;37.31
46724;BME280;32463;48.298;11.620;2024-02-16T11:58:30;96288.53;;;24.39;37.09
46724;BME280;32463;48.298;11.620;2024-02-16T12:00:57;96291.47;;;25.45;35.86
46724;BME280;32463;48.298;11.620;2024-02-16T12:03:25;96284.75;;;26.06;34.05
46724;BME280;32463;48.298;11.620;2024-02-16T12:05:57;96286.16;;;26.81;33.69
46724;BME280;32463;48.298;11.620;2024-02-16T12:08:32;96280.50;;;26.58;33.47
46724;BME280;32463;48.298;11.620;2024-02-16T12:10:58;96290.72;;;25.49;34.60
46724;BME280;32463;48.298;11.620;2024-02-16T12:13:25;96285.00;;;25.63;35.07
46724;BME280;32463;48.298;11.620;2024-02-16T12:15:52;96289.97;;;22.91;38.27
46724;BME280;32463;48.298;11.620;2024-02-16T12:18:22;96293.13;;;22.64;39.48
46724;BME280;32463;48.298;11.620;2024-02-16T12:20:59;96286.72;;;22.08;40.21
46724;BME280;32463;48.298;11.620;2024-02-16T12:23:26;96288.31;;;21.86;41.38
46724;BME280;32463;48.298;11.620;2024-02-16T12:25:53;96289.56;;;21.83;40.84
46724;BME280;32463;48.298;11.620;2024-02-16T12:28:25;96287.50;;;21.85;41.98
46724;BME280;32463;48.298;11.620;2024-02-16T12:30:53;96294.50;;;21.57;42.40
46724;BME280;32463;48.298;11.620;2024-02-16T12:33:21;96297.28;;;21.85;41.88
46724;BME280;32463;48.298;11.620;2024-02-16T12:35:48;96293.13;;;21.89;41.58
46724;BME280;32463;48.298;11.620;2024-02-16T12:38:15;96293.00;;;21.72;41.99
46724;BME280;32463;48.298;11.620;2024-02-16T12:40:45;96295.84;;;21.24;43.38
46724;BME280;32463;48.298;11.620;2024-02-16T12:43:12;96298.41;;;21.12;44.37
46724;BME280;32463;48.298;11.620;2024-02-16T12:45:40;96294.06;;;21.18;43.84
46724;BME280;32463;48.298;11.620;2024-02-16T12:48:06;96292.22;;;21.72;42.73
46724;BME280;32463;48.298;11.620;2024-02-16T12:50:35;96293.06;;;20.59;43.72
46724;BME280;32463;48.298;11.620;2024-02-16T12:53:02;96284.72;;;20.62;44.04
46724;BME280;32463;48.298;11.620;2024-02-16T12:55:29;96293.94;;;19.80;46.13